Time;durP1;ratioP1;P1;durP2;ratioP2;P2;SDS_P1;SDS_P2;PMS_P1;PMS_P2;Temp;Humidity;BMP_temperature;BMP_pressure;BME280_temperature;BME280_humidity;BME280_pressure;Samples;Min_cycle;Max_cycle;Signal;HPM_P1;HPM_P2
2022/10/21 00:01:39;;;;;;;19.40;9.50;;;;;;;2.53;76.06;100905.52;127061;1290;107441;-77
2022/10/21 00:04:44;;;;;;;17.40;9.70;;;;;;;2.57;75.95;100904.99;127166;1284;107558;-77
2022/10/21 00:07:49;;;;;;;20.40;10.80;;;;;;;2.61;75.98;100901.23;127202;1286;107627;-76
2022/10/21 00:10:56;;;;;;;20.40;10.80;;;;;;;2.65;76.10;100908.56;127156;1292;107547;-77
2022/10/21 00:14:01;;;;;;;19.70;10.70;;;;;;;2.64;75.87;100913.17;127054;1280;107308;-77
2022/10/21 00:17:07;;;;;;;20.20;11.50;;;;;;;2.61;75.97;100913.67;126868;1285;107502;-76
2022/10/21 00:20:13;;;;;;;18.20;10.60;;;;;;;2.61;76.08;100909.81;126890;1286;107629;-76
2022/10/21 00:23:19;;;;;;;20.50;11.60;;;;;;;2.58;76.02;100897.86;126941;1290;107544;-77
2022/10/21 00:26:24;;;;;;;21.00;11.50;;;;;;;2.55;75.94;100897.19;127051;1296;107531;-77
2022/10/21 00:29:30;;;;;;;20.50;11.10;;;;;;;2.52;76.13;100899.46;127082;1280;107434;-78
2022/10/21 00:32:35;;;;;;;21.60;11.70;;;;;;;2.48;76.01;100900.55;126960;1276;107296;-76
2022/10/21 00:35:41;;;;;;;16.80;9.20;;;;;;;2.49;76.23;100898.75;126847;1279;107547;-76
2022/10/21 00:38:48;;;;;;;19.50;10.70;;;;;;;2.51;76.16;100887.57;126864;1288;107605;-76
2022/10/21 00:41:53;;;;;;;17.70;10.70;;;;;;;2.50;76.12;100888.11;126894;1276;107468;-75
2022/10/21 00:45:20;;;;;;;19.10;10.90;;;;;;;2.51;76.19;100883.66;126827;1294;107527;-75
2022/10/21 00:48:34;;;;;;;19.20;10.60;;;;;;;2.50;76.05;100884.27;127094;1292;107267;-76
2022/10/21 00:51:39;;;;;;;19.10;10.90;;;;;;;2.46;76.05;100886.25;126884;1286;107424;-75
2022/10/21 00:54:46;;;;;;;17.40;10.70;;;;;;;2.43;75.91;100880.13;126823;1280;108069;-75
2022/10/21 00:57:53;;;;;;;20.30;11.40;;;;;;;2.40;76.10;100868.52;126930;1285;107854;-76
2022/10/21 01:01:01;;;;;;;18.70;11.10;;;;;;;2.38;76.39;100867.73;126984;1286;107140;-76
2022/10/21 01:04:06;;;;;;;20.30;11.20;;;;;;;2.35;76.41;100859.81;126836;1280;107317;-76
2022/10/21 01:07:13;;;;;;;21.10;11.00;;;;;;;2.31;76.34;100855.13;126867;1284;107538;-76
2022/10/21 01:10:19;;;;;;;18.50;10.30;;;;;;;2.28;76.18;100855.29;126973;1286;106721;-76
2022/10/21 01:13:31;;;;;;;16.70;10.00;;;;;;;2.27;76.44;100845.34;126895;1285;107345;-75
2022/10/21 01:16:43;;;;;;;20.30;11.00;;;;;;;2.28;76.50;100842.86;127026;1286;107183;-76
2022/10/21 01:20:20;;;;;;;19.60;10.50;;;;;;;2.28;76.44;100841.96;126829;1286;107352;-75
2022/10/21 01:23:59;;;;;;;20.00;10.40;;;;;;;2.28;76.37;100834.71;126775;1288;107331;-76
2022/10/21 01:27:33;;;;;;;17.80;9.60;;;;;;;2.28;76.36;100828.75;126851;1275;107235;-75
2022/10/21 01:30:42;;;;;;;19.30;10.70;;;;;;;2.26;76.41;100822.95;126931;1280;107979;-76
2022/10/21 01:33:54;;;;;;;20.40;10.40;;;;;;;2.23;76.33;100813.25;126917;1279;106316;-76
2022/10/21 01:37:05;;;;;;;;;;;;;;;2.19;76.71;100799.48;126951;1286;108095;-76
2022/10/21 01:40:18;;;;;;;15.40;8.70;;;;;;;2.14;76.62;100800.05;126960;1284;108173;-75
2022/10/21 01:43:34;;;;;;;20.40;11.00;;;;;;;2.10;76.60;100799.58;126972;1300;107291;-76
2022/10/21 01:46:45;;;;;;;20.20;10.40;;;;;;;2.05;76.89;100795.48;126928;1279;106039;-77
2022/10/21 01:49:55;;;;;;;19.80;10.40;;;;;;;2.04;76.98;100786.77;126919;1286;107423;-76
2022/10/21 01:53:05;;;;;;;15.90;8.60;;;;;;;2.06;77.17;100782.28;126927;1285;107107;-76
2022/10/21 01:56:14;;;;;;;19.10;10.30;;;;;;;2.08;77.03;100785.65;126933;1286;106562;-76
2022/10/21 01:59:24;;;;;;;18.20;10.10;;;;;;;2.13;77.13;100794.70;126898;1286;107540;-76
2022/10/21 02:02:33;;;;;;;18.40;10.40;;;;;;;2.17;77.01;100785.88;126910;1272;107486;-80
2022/10/21 02:05:39;;;;;;;17.00;9.70;;;;;;;2.17;77.05;100773.73;127233;1280;107265;-80
2022/10/21 02:08:45;;;;;;;18.40;10.10;;;;;;;2.16;77.13;100776.64;127250;1286;107361;-79
2022/10/21 02:11:54;;;;;;;18.20;10.10;;;;;;;2.11;77.00;100787.77;127372;1279;107343;-79
2022/10/21 02:15:02;;;;;;;18.10;10.70;;;;;;;2.08;76.95;100786.90;127111;1284;107386;-82
2022/10/21 02:18:17;;;;;;;20.90;10.90;;;;;;;2.06;77.20;100782.45;127478;1279;107357;-79
2022/10/21 02:21:27;;;;;;;18.70;9.90;;;;;;;2.02;77.09;100789.70;127256;1285;107391;-80
2022/10/21 02:24:40;;;;;;;19.80;10.50;;;;;;;1.96;77.26;100792.30;127341;1279;107310;-80
2022/10/21 02:27:46;;;;;;;18.20;9.40;;;;;;;1.97;77.22;100786.60;127419;1279;107535;-80
2022/10/21 02:31:02;;;;;;;17.60;9.90;;;;;;;2.01;77.05;100786.94;126955;1285;107154;-79
2022/10/21 02:34:20;;;;;;;20.00;10.30;;;;;;;2.05;77.22;100778.13;127037;1287;107312;-79
2022/10/21 02:37:34;;;;;;;19.70;10.00;;;;;;;2.09;77.19;100772.83;126942;1280;107495;-77
2022/10/21 02:40:43;;;;;;;19.40;9.90;;;;;;;2.11;77.50;100768.14;126945;1279;107348;-79
2022/10/21 02:43:53;;;;;;;20.40;10.20;;;;;;;2.10;77.43;100764.33;127050;1278;107390;-80
2022/10/21 02:46:59;;;;;;;20.00;11.10;;;;;;;2.09;77.13;100763.32;127174;1282;107506;-74
2022/10/21 02:50:05;;;;;;;20.70;10.20;;;;;;;2.08;77.30;100766.20;126914;1286;107622;-73
2022/10/21 02:53:13;;;;;;;20.60;11.00;;;;;;;2.06;77.33;100758.74;127141;1279;107389;-76
2022/10/21 02:56:18;;;;;;;21.30;11.30;;;;;;;2.03;77.40;100756.98;127340;1278;107462;-76
2022/10/21 02:59:24;;;;;;;20.70;10.60;;;;;;;1.98;77.24;100750.61;127160;1279;107392;-76
2022/10/21 03:02:30;;;;;;;23.90;10.90;;;;;;;1.95;77.29;100746.69;127249;1279;107454;-77
2022/10/21 03:05:35;;;;;;;22.70;11.90;;;;;;;1.97;77.48;100746.27;127132;1279;107291;-76
2022/10/21 03:08:40;;;;;;;18.40;9.30;;;;;;;2.02;77.60;100752.86;127011;1279;107509;-75
2022/10/21 03:11:46;;;;;;;18.60;9.90;;;;;;;2.09;77.73;100741.38;127033;1278;107446;-77
2022/10/21 03:14:52;;;;;;;21.20;10.50;;;;;;;2.16;77.64;100731.86;126996;1280;106849;-76
2022/10/21 03:17:57;;;;;;;20.30;10.90;;;;;;;2.22;77.45;100726.63;126760;1289;107548;-76
2022/10/21 03:21:03;;;;;;;22.30;11.70;;;;;;;2.25;77.56;100728.35;126708;1279;107383;-76
2022/10/21 03:24:08;;;;;;;22.60;11.30;;;;;;;2.27;77.37;100722.98;126781;1280;107985;-77
2022/10/21 03:27:13;;;;;;;22.10;11.00;;;;;;;2.26;77.52;100726.39;126828;1279;107167;-77
2022/10/21 03:30:19;;;;;;;20.80;10.60;;;;;;;2.24;77.57;100723.15;126881;1285;107515;-77
2022/10/21 03:33:24;;;;;;;21.60;11.50;;;;;;;2.20;77.43;100713.21;127013;1285;107613;-77
2022/10/21 03:36:30;;;;;;;25.00;11.40;;;;;;;2.18;77.60;100709.98;127200;1286;107529;-76
2022/10/21 03:39:35;;;;;;;23.00;10.70;;;;;;;2.15;77.57;100712.60;127208;1279;107445;-77
2022/10/21 03:42:40;;;;;;;25.40;11.10;;;;;;;2.11;77.66;100714.93;127233;1286;107280;-77
2022/10/21 03:45:46;;;;;;;22.00;10.80;;;;;;;2.09;77.60;100709.29;126991;1271;107368;-76
2022/10/21 03:48:52;;;;;;;21.10;10.30;;;;;;;2.12;77.85;100697.33;126904;1279;105584;-78
2022/10/21 03:51:57;;;;;;;19.40;10.40;;;;;;;2.19;77.84;100693.43;126950;1279;107483;-76
2022/10/21 03:55:03;;;;;;;24.80;12.60;;;;;;;2.25;77.84;100693.47;126895;1286;107470;-77
2022/10/21 03:58:08;;;;;;;21.30;10.90;;;;;;;2.30;77.66;100680.85;126782;1286;107564;-75
2022/10/21 04:01:14;;;;;;;21.60;11.20;;;;;;;2.33;77.81;100674.02;126899;1278;107396;-75
2022/10/21 04:04:20;;;;;;;20.10;10.50;;;;;;;2.33;77.80;100676.30;126954;1286;107537;-75
2022/10/21 04:07:25;;;;;;;20.60;11.30;;;;;;;2.31;77.80;100674.14;126926;1286;107535;-76
2022/10/21 04:10:31;;;;;;;22.50;11.30;;;;;;;2.29;77.97;100681.27;126879;1279;107334;-76
2022/10/21 04:13:36;;;;;;;23.20;11.20;;;;;;;2.28;77.83;100675.37;126878;1280;107407;-76
2022/10/21 04:16:42;;;;;;;26.30;13.40;;;;;;;2.25;77.71;100669.05;126798;1279;107506;-76
2022/10/21 04:19:48;;;;;;;21.30;10.20;;;;;;;2.23;77.96;100668.30;127072;1278;107594;-76
2022/10/21 04:22:53;;;;;;;20.30;10.00;;;;;;;2.21;77.83;100659.77;127064;1286;107190;-77
2022/10/21 04:25:59;;;;;;;21.40;11.10;;;;;;;2.22;78.12;100656.02;127005;1285;106658;-75
2022/10/21 04:29:04;;;;;;;22.30;11.00;;;;;;;2.25;77.84;100647.45;126906;1279;107547;-76
2022/10/21 04:32:10;;;;;;;20.30;10.30;;;;;;;2.27;77.87;100642.41;126913;1279;105700;-76
2022/10/21 04:35:15;;;;;;;21.20;11.40;;;;;;;2.26;77.87;100637.36;126889;1278;107263;-76
2022/10/21 04:38:21;;;;;;;18.80;10.80;;;;;;;2.24;77.80;100634.52;126984;1278;107505;-76
2022/10/21 04:41:26;;;;;;;21.70;11.60;;;;;;;2.21;77.93;100628.39;126857;1278;107416;-75
2022/10/21 04:44:31;;;;;;;21.80;11.40;;;;;;;2.19;77.98;100619.20;126844;1286;107537;-75
2022/10/21 04:47:37;;;;;;;23.10;12.10;;;;;;;2.15;77.96;100608.88;126855;1278;106663;-74
2022/10/21 04:50:42;;;;;;;23.60;11.90;;;;;;;2.10;78.13;100608.66;126783;1278;107442;-76
2022/10/21 04:53:48;;;;;;;21.90;11.10;;;;;;;2.06;78.08;100605.92;127130;1280;107377;-75
2022/10/21 04:56:53;;;;;;;20.50;10.40;;;;;;;2.04;78.17;100605.49;126904;1293;107489;-75
2022/10/21 04:59:58;;;;;;;19.80;10.80;;;;;;;2.05;78.21;100609.64;127000;1280;107404;-76
2022/10/21 05:03:04;;;;;;;24.20;11.50;;;;;;;2.08;78.06;100616.49;126941;1279;107483;-75
2022/10/21 05:06:09;;;;;;;18.70;11.20;;;;;;;2.09;78.22;100613.62;127123;1280;107610;-75
2022/10/21 05:09:15;;;;;;;19.90;10.90;;;;;;;2.12;78.16;100605.55;127141;1286;107593;-76
2022/10/21 05:12:20;;;;;;;20.40;11.00;;;;;;;2.11;78.09;100605.44;127014;1287;107523;-76
2022/10/21 05:15:26;;;;;;;22.10;11.10;;;;;;;2.09;78.14;100606.41;127017;1279;107546;-77
2022/10/21 05:18:31;;;;;;;23.10;12.00;;;;;;;2.09;78.22;100605.19;127079;1279;107506;-77
2022/10/21 05:21:37;;;;;;;24.40;12.40;;;;;;;2.07;78.16;100590.19;126938;1283;106536;-77
2022/10/21 05:24:42;;;;;;;23.90;11.80;;;;;;;2.05;78.27;100586.66;126991;1281;107499;-77
2022/10/21 05:27:48;;;;;;;21.60;11.70;;;;;;;2.05;78.20;100587.05;126960;1287;107526;-76
2022/10/21 05:30:53;;;;;;;21.00;9.90;;;;;;;2.08;78.33;100583.34;126939;1279;107502;-77
2022/10/21 05:33:59;;;;;;;19.20;10.50;;;;;;;2.11;78.40;100588.61;126960;1279;107516;-77
2022/10/21 05:37:04;;;;;;;20.90;10.60;;;;;;;2.18;78.46;100591.16;126894;1280;107517;-76
2022/10/21 05:40:11;;;;;;;16.90;10.00;;;;;;;2.24;78.37;100589.05;127029;1285;107353;-76
2022/10/21 05:43:17;;;;;;;19.30;10.90;;;;;;;2.32;78.41;100589.83;127160;1284;107192;-77
2022/10/21 05:46:22;;;;;;;20.60;11.10;;;;;;;2.38;78.45;100588.77;126990;1286;107344;-77
2022/10/21 05:49:27;;;;;;;22.60;11.50;;;;;;;2.44;78.45;100584.38;126903;1279;107494;-76
2022/10/21 05:52:33;;;;;;;21.80;11.60;;;;;;;2.50;78.35;100584.51;126959;1287;108039;-76
2022/10/21 05:55:38;;;;;;;21.70;11.50;;;;;;;2.54;78.43;100584.27;126871;1276;106423;-79
2022/10/21 05:58:43;;;;;;;22.80;11.90;;;;;;;2.61;78.33;100581.02;126908;1286;107394;-77
2022/10/21 06:01:49;;;;;;;18.50;10.00;;;;;;;2.69;78.44;100579.65;126889;1282;106505;-76
2022/10/21 06:04:55;;;;;;;22.30;11.40;;;;;;;2.80;78.27;100578.96;126948;1286;107728;-77
2022/10/21 06:08:00;;;;;;;20.10;11.60;;;;;;;2.89;78.31;100577.17;127096;1286;107480;-77
2022/10/21 06:11:08;;;;;;;20.30;11.40;;;;;;;2.99;78.28;100580.29;127153;1295;107512;-77
2022/10/21 06:14:13;;;;;;;20.10;11.00;;;;;;;3.07;78.24;100586.98;127139;1286;106294;-77
2022/10/21 06:17:19;;;;;;;19.40;11.20;;;;;;;3.12;78.23;100597.53;127234;1286;107520;-78
2022/10/21 06:20:24;;;;;;;22.20;11.90;;;;;;;3.18;78.40;100601.75;127107;1286;107253;-77
2022/10/21 06:23:30;;;;;;;21.10;12.30;;;;;;;3.20;78.17;100598.79;127164;1286;107477;-77
2022/10/21 06:26:35;;;;;;;22.00;12.10;;;;;;;3.24;78.06;100599.42;127220;1279;107390;-78
2022/10/21 06:29:41;;;;;;;20.70;11.50;;;;;;;3.27;78.31;100593.13;127005;1279;105970;-77
2022/10/21 06:32:46;;;;;;;18.50;11.00;;;;;;;3.31;78.17;100591.27;127092;1292;107408;-78
2022/10/21 06:35:52;;;;;;;17.60;9.70;;;;;;;3.41;78.02;100587.64;127199;1278;107461;-78
2022/10/21 06:43:52;;;;;;;18.60;11.20;;;;;;;3.75;78.24;100571.86;128208;1286;108975;-77
2022/10/21 06:46:57;;;;;;;21.40;12.30;;;;;;;3.87;78.29;100581.08;127000;1278;107440;-77
2022/10/21 06:50:03;;;;;;;23.20;13.10;;;;;;;4.00;78.06;100575.65;127119;1286;106542;-77
2022/10/21 06:53:08;;;;;;;21.20;13.50;;;;;;;4.11;78.17;100569.85;127103;1275;107542;-77
2022/10/21 06:56:18;;;;;;;20.10;12.60;;;;;;;4.22;77.97;100572.41;127071;1286;107238;-78
2022/10/21 06:59:23;;;;;;;19.40;11.80;;;;;;;4.33;78.07;100570.27;127170;1292;107346;-77
2022/10/21 07:02:28;;;;;;;20.30;12.20;;;;;;;4.41;78.14;100572.02;127195;1295;107568;-78
2022/10/21 07:05:34;;;;;;;20.80;11.60;;;;;;;4.47;78.16;100577.41;127313;1296;107396;-77
2022/10/21 07:08:39;;;;;;;19.20;10.80;;;;;;;4.54;78.21;100581.30;127133;1278;107529;-78
2022/10/21 07:11:45;;;;;;;18.70;10.90;;;;;;;4.65;77.90;100571.92;126994;1280;107650;-78
2022/10/21 07:14:50;;;;;;;20.30;11.60;;;;;;;4.76;77.84;100555.87;127130;1279;107607;-78
2022/10/21 07:17:59;;;;;;;19.30;11.50;;;;;;;4.86;77.76;100557.58;127661;1279;107503;-78
2022/10/21 07:21:08;;;;;;;20.10;12.00;;;;;;;4.98;77.98;100558.88;127086;1279;107475;-78
2022/10/21 07:24:13;;;;;;;19.20;11.70;;;;;;;5.08;77.79;100554.09;127136;1279;107530;-76
2022/10/21 07:27:19;;;;;;;20.90;12.30;;;;;;;5.19;77.77;100555.29;127178;1278;107310;-78
2022/10/21 07:30:24;;;;;;;19.70;12.00;;;;;;;5.28;77.83;100556.52;127203;1286;107567;-77
2022/10/21 07:33:30;;;;;;;22.00;13.50;;;;;;;5.37;77.60;100557.33;127026;1278;107512;-77
2022/10/21 07:36:37;;;;;;;21.20;13.20;;;;;;;5.41;77.51;100560.02;127072;1278;107941;-78
2022/10/21 07:39:43;;;;;;;19.10;12.00;;;;;;;5.47;77.70;100553.38;127035;1278;107154;-79
2022/10/21 07:42:48;;;;;;;25.80;16.30;;;;;;;5.51;77.34;100546.54;127045;1286;107502;-78
2022/10/21 07:45:54;;;;;;;19.10;11.80;;;;;;;5.57;77.40;100534.13;126982;1286;107553;-75
2022/10/21 07:48:59;;;;;;;19.50;11.00;;;;;;;5.64;77.28;100532.73;127146;1286;107415;-76
2022/10/21 07:52:05;;;;;;;20.10;11.50;;;;;;;5.76;77.60;100522.27;127183;1279;107529;-77
2022/10/21 07:55:11;;;;;;;19.60;11.60;;;;;;;5.89;77.13;100516.15;127059;1279;108084;-78
2022/10/21 07:58:16;;;;;;;21.20;12.20;;;;;;;6.03;77.10;100513.37;127134;1278;107557;-77
2022/10/21 08:01:22;;;;;;;18.20;11.70;;;;;;;6.15;77.07;100520.42;127090;1286;107589;-75
2022/10/21 08:04:32;;;;;;;18.00;11.40;;;;;;;6.25;77.09;100519.45;127114;1286;107329;-77
2022/10/21 08:07:37;;;;;;;18.30;12.00;;;;;;;6.33;76.81;100514.44;127019;1278;107476;-75
2022/10/21 08:10:43;;;;;;;18.70;11.90;;;;;;;6.39;76.65;100508.66;127123;1272;107530;-78
2022/10/21 08:13:48;;;;;;;17.00;11.80;;;;;;;6.48;76.60;100514.48;127214;1278;106666;-78
2022/10/21 08:16:54;;;;;;;19.00;12.10;;;;;;;6.58;76.55;100508.06;127050;1278;107611;-77
2022/10/21 08:20:00;;;;;;;18.50;11.30;;;;;;;6.58;76.40;100503.66;127096;1278;107352;-78
2022/10/21 08:23:06;;;;;;;16.80;11.10;;;;;;;6.60;76.43;100494.48;127012;1287;107511;-78
2022/10/21 08:26:15;;;;;;;16.40;11.00;;;;;;;6.57;76.59;100481.44;127044;1279;107525;-78
2022/10/21 08:29:20;;;;;;;15.90;10.70;;;;;;;6.55;76.74;100483.70;127109;1286;107505;-77
2022/10/21 08:32:25;;;;;;;17.80;11.50;;;;;;;6.53;76.28;100473.30;127219;1286;106563;-78
2022/10/21 08:35:32;;;;;;;17.20;10.40;;;;;;;6.49;76.57;100466.34;127065;1272;107523;-78
2022/10/21 08:38:38;;;;;;;22.70;11.40;;;;;;;6.45;76.56;100461.15;127020;1279;107195;-77
2022/10/21 08:42:04;;;;;;;22.70;12.10;;;;;;;6.48;76.26;100452.43;126994;1279;107579;-78
2022/10/21 08:45:20;;;;;;;23.30;12.70;;;;;;;6.56;76.25;100448.66;127078;1285;107480;-78
2022/10/21 08:48:31;;;;;;;23.50;14.30;;;;;;;6.69;76.26;100453.80;127045;1278;107508;-74
2022/10/21 08:51:41;;;;;;;22.80;13.70;;;;;;;6.80;76.09;100449.62;127119;1295;107510;-78
2022/10/21 08:54:51;;;;;;;21.50;13.70;;;;;;;6.86;76.06;100442.36;127279;1279;107457;-78
2022/10/21 08:57:56;;;;;;;20.90;12.90;;;;;;;6.90;76.11;100432.35;127173;1278;107268;-78
2022/10/21 09:01:11;;;;;;;20.60;12.60;;;;;;;6.91;76.09;100435.07;127102;1275;107550;-78
2022/10/21 09:04:27;;;;;;;20.60;12.90;;;;;;;6.95;76.25;100426.95;127183;1278;105778;-76
2022/10/21 09:07:45;;;;;;;20.80;12.90;;;;;;;7.03;76.10;100426.30;126962;1278;107295;-76
2022/10/21 09:11:01;;;;;;;21.10;13.40;;;;;;;7.11;75.91;100425.27;127033;1279;107398;-76
2022/10/21 09:14:32;;;;;;;19.70;12.70;;;;;;;7.18;75.93;100420.48;127141;1279;107454;-78
2022/10/21 09:17:49;;;;;;;20.70;13.40;;;;;;;7.28;76.09;100410.48;127147;1271;107534;-78
2022/10/21 09:21:01;;;;;;;26.00;13.80;;;;;;;7.38;75.94;100400.40;127168;1278;107249;-78
2022/10/21 09:24:11;;;;;;;18.40;11.90;;;;;;;7.48;75.65;100395.44;127321;1272;107486;-78
2022/10/21 09:27:17;;;;;;;19.20;11.60;;;;;;;7.58;75.69;100392.55;127195;1278;107540;-78
2022/10/21 09:30:24;;;;;;;16.30;11.30;;;;;;;7.73;75.85;100387.18;127182;1272;108764;-78
2022/10/21 09:33:31;;;;;;;17.70;10.70;;;;;;;7.96;75.74;100387.52;127072;1286;107558;-77
2022/10/21 09:36:46;;;;;;;17.50;11.30;;;;;;;8.21;75.40;100379.83;127151;1279;107261;-78
2022/10/21 09:40:00;;;;;;;16.80;11.20;;;;;;;8.40;75.16;100376.44;127162;1286;107339;-79
2022/10/21 09:43:13;;;;;;;16.60;11.00;;;;;;;8.53;74.98;100368.06;127030;1279;108652;-78
2022/10/21 09:46:19;;;;;;;16.10;10.10;;;;;;;8.65;75.00;100363.08;126989;1279;107441;-78
2022/10/21 09:49:30;;;;;;;16.10;10.40;;;;;;;8.73;74.73;100363.56;127180;1278;107525;-77
2022/10/21 09:52:37;;;;;;;16.50;10.50;;;;;;;8.77;74.73;100366.56;127144;1286;107501;-78
2022/10/21 09:55:45;;;;;;;16.20;10.30;;;;;;;8.81;74.68;100363.20;126994;1278;105942;-78
2022/10/21 09:59:04;;;;;;;16.30;11.20;;;;;;;8.85;74.66;100362.83;126994;1278;107598;-78
2022/10/21 10:02:17;;;;;;;17.10;10.70;;;;;;;8.92;74.67;100359.39;127123;1296;105864;-78
2022/10/21 10:05:42;;;;;;;17.40;11.10;;;;;;;8.98;74.73;100356.02;127084;1286;107307;-78
2022/10/21 10:08:47;;;;;;;15.60;10.90;;;;;;;9.03;74.67;100346.11;127123;1278;107387;-78
2022/10/21 10:11:57;;;;;;;17.50;11.10;;;;;;;9.08;74.62;100348.72;127122;1286;105425;-78
2022/10/21 10:15:25;;;;;;;18.00;11.00;;;;;;;9.14;74.68;100340.52;127001;1286;106772;-77
2022/10/21 10:18:30;;;;;;;15.50;9.80;;;;;;;9.20;74.37;100333.88;127168;1279;107426;-78
2022/10/21 10:21:35;;;;;;;17.30;10.80;;;;;;;9.28;74.45;100335.49;126974;1278;108239;-79
2022/10/21 10:24:42;;;;;;;17.30;9.90;;;;;;;9.36;74.30;100332.98;127170;1270;107420;-78
2022/10/21 10:27:51;;;;;;;15.70;9.30;;;;;;;9.42;74.34;100329.92;127221;1279;107672;-78
2022/10/21 10:30:58;;;;;;;15.80;10.40;;;;;;;9.49;74.27;100315.07;127067;1287;107425;-78
2022/10/21 10:34:07;;;;;;;17.30;10.40;;;;;;;9.58;74.08;100304.77;127012;1278;107518;-78
2022/10/21 10:37:18;;;;;;;14.90;9.90;;;;;;;9.69;74.35;100297.89;126756;1279;205101;-78
2022/10/21 10:40:26;;;;;;;14.20;10.20;;;;;;;9.77;74.01;100287.68;127100;1272;107638;-78
2022/10/21 10:43:34;;;;;;;16.80;10.80;;;;;;;9.84;74.08;100285.77;127305;1286;107641;-78
2022/10/21 10:46:40;;;;;;;15.30;11.40;;;;;;;9.91;73.62;100294.20;127161;1278;109275;-78
2022/10/21 10:49:45;;;;;;;15.70;10.60;;;;;;;9.96;73.68;100290.15;127190;1279;107326;-78
2022/10/21 10:53:20;;;;;;;16.70;10.80;;;;;;;10.02;73.89;100283.21;126906;1286;107472;-78
2022/10/21 10:56:29;;;;;;;16.10;11.10;;;;;;;10.07;73.40;100267.95;126829;1279;107516;-76
2022/10/21 10:59:39;;;;;;;18.50;12.00;;;;;;;10.09;73.35;100263.09;126874;1286;107503;-76
2022/10/21 11:02:52;;;;;;;16.10;10.60;;;;;;;10.12;73.62;100254.43;126906;1272;107259;-77
2022/10/21 11:06:07;;;;;;;18.50;12.00;;;;;;;10.17;73.24;100249.15;126996;1286;107194;-76
2022/10/21 11:09:13;;;;;;;18.20;11.80;;;;;;;10.22;73.27;100250.27;127060;1272;107514;-77
2022/10/21 11:12:25;;;;;;;16.80;10.70;;;;;;;10.26;73.29;100249.55;127167;1278;107362;-77
2022/10/21 11:15:56;;;;;;;14.10;9.90;;;;;;;10.35;73.19;100247.43;126805;1286;107345;-75
2022/10/21 11:19:08;;;;;;;13.20;9.00;;;;;;;10.48;73.12;100243.02;126921;1286;107425;-75
2022/10/21 11:22:22;;;;;;;;;;;;;;;10.58;73.10;100238.60;126946;1279;107254;-77
2022/10/21 11:25:35;;;;;;;15.60;9.80;;;;;;;10.64;72.88;100238.19;126936;1286;106253;-76
2022/10/21 11:28:48;;;;;;;14.20;9.80;;;;;;;10.69;72.90;100232.16;126811;1271;107250;-76
2022/10/21 11:32:06;;;;;;;13.40;9.50;;;;;;;10.76;72.70;100237.89;126909;1286;106040;-76
2022/10/21 11:35:22;;;;;;;18.50;12.40;;;;;;;10.81;72.64;100231.11;126923;1286;107312;-76
2022/10/21 11:38:51;;;;;;;17.80;12.70;;;;;;;10.85;72.80;100235.58;126858;1279;107389;-76
2022/10/21 11:42:06;;;;;;;17.10;11.10;;;;;;;10.90;72.48;100228.78;126974;1279;107516;-77
2022/10/21 11:45:34;;;;;;;15.00;10.40;;;;;;;10.90;72.28;100222.35;126894;1278;107245;-76
2022/10/21 11:49:03;;;;;;;13.60;10.00;;;;;;;10.93;72.35;100222.61;126974;1279;107475;-77
2022/10/21 11:52:21;;;;;;;17.90;10.40;;;;;;;10.95;72.33;100216.48;126859;1286;107366;-77
2022/10/21 11:55:39;;;;;;;15.00;10.90;;;;;;;10.99;72.19;100210.46;126936;1278;107354;-77
2022/10/21 11:58:54;;;;;;;14.60;10.60;;;;;;;10.94;71.84;100204.20;126824;1286;107291;-77
2022/10/21 12:02:09;;;;;;;14.10;10.70;;;;;;;10.88;71.90;100198.88;126928;1279;107568;-76
2022/10/21 12:05:22;;;;;;;15.30;11.00;;;;;;;10.85;71.88;100189.23;127033;1288;107291;-77
2022/10/21 12:08:33;;;;;;;15.90;10.70;;;;;;;10.83;71.87;100180.45;126935;1295;107525;-76
2022/10/21 12:11:46;;;;;;;13.80;10.00;;;;;;;10.85;72.18;100174.56;126909;1279;107397;-76
2022/10/21 12:14:53;;;;;;;;;;;;;;;10.88;72.03;100170.11;126837;1286;107365;-76
2022/10/21 12:18:00;;;;;;;12.20;7.30;;;;;;;10.91;72.20;100167.54;126832;1285;108478;-76
2022/10/21 12:21:14;;;;;;;12.90;8.80;;;;;;;10.94;71.90;100168.55;127191;1279;107444;-77
2022/10/21 12:24:42;;;;;;;14.30;9.60;;;;;;;10.99;72.00;100172.15;127051;1272;105558;-77
2022/10/21 12:27:55;;;;;;;16.20;10.30;;;;;;;11.06;72.03;100176.59;126983;1272;107452;-77
2022/10/21 12:31:11;;;;;;;17.70;12.90;;;;;;;11.11;71.81;100186.63;126961;1279;107252;-77
2022/10/21 12:34:17;;;;;;;15.70;11.50;;;;;;;11.12;71.85;100186.30;127200;1271;108022;-77
2022/10/21 12:38:07;;;;;;;17.10;11.70;;;;;;;11.13;71.91;100186.98;127206;1279;106531;-77
2022/10/21 12:41:39;;;;;;;16.40;11.30;;;;;;;11.10;71.75;100184.92;126788;1278;107528;-77
2022/10/21 12:44:48;;;;;;;17.10;10.90;;;;;;;11.08;72.26;100178.07;126595;1285;106495;-77
2022/10/21 12:47:54;;;;;;;15.70;11.00;;;;;;;11.05;71.92;100179.02;127021;1279;107760;-77
2022/10/21 12:51:02;;;;;;;14.80;10.40;;;;;;;11.01;72.22;100177.09;126876;1280;107470;-77
2022/10/21 12:54:14;;;;;;;15.30;10.20;;;;;;;10.97;71.92;100166.79;126788;1272;107445;-77
2022/10/21 12:57:28;;;;;;;17.00;11.50;;;;;;;10.93;71.92;100164.91;126946;1279;107298;-77
2022/10/21 13:00:57;;;;;;;15.80;10.40;;;;;;;10.90;71.90;100154.91;126856;1284;107310;-77
2022/10/21 13:04:03;;;;;;;16.10;10.50;;;;;;;10.88;71.97;100143.55;126994;1286;106612;-77
2022/10/21 13:07:29;;;;;;;15.80;10.60;;;;;;;10.88;72.18;100142.75;126915;1279;106826;-77
2022/10/21 13:10:34;;;;;;;15.40;10.00;;;;;;;10.88;72.17;100144.14;126981;1272;107363;-77
2022/10/21 13:13:41;;;;;;;14.30;9.20;;;;;;;10.87;72.15;100141.77;126822;1279;107662;-77
2022/10/21 13:16:47;;;;;;;12.20;8.30;;;;;;;10.89;72.07;100134.61;127002;1272;107505;-77
2022/10/21 13:19:53;;;;;;;13.90;9.50;;;;;;;10.93;72.33;100134.73;126975;1286;107351;-77
2022/10/21 13:23:47;;;;;;;14.10;9.30;;;;;;;10.99;72.24;100141.24;126892;1279;107498;-77
2022/10/21 13:26:55;;;;;;;14.00;9.10;;;;;;;11.06;71.76;100138.68;126425;1281;107634;-77
2022/10/21 13:30:01;;;;;;;14.80;10.00;;;;;;;11.11;71.68;100126.45;126887;1271;107486;-77
2022/10/21 13:33:15;;;;;;;13.10;9.50;;;;;;;11.15;71.49;100121.17;126883;1278;107468;-77
2022/10/21 13:36:33;;;;;;;15.30;9.70;;;;;;;11.16;71.79;100117.02;127228;1279;106569;-77
2022/10/21 13:39:39;;;;;;;16.20;10.10;;;;;;;11.15;71.58;100114.58;127189;1279;107661;-77
2022/10/21 13:42:49;;;;;;;15.50;10.40;;;;;;;11.15;71.84;100117.33;126950;1286;107195;-77
2022/10/21 13:46:04;;;;;;;13.20;9.50;;;;;;;11.13;71.62;100120.12;127076;1279;108061;-77
2022/10/21 13:49:28;;;;;;;12.80;8.90;;;;;;;11.10;71.63;100116.54;127090;1279;106540;-77
2022/10/21 13:52:33;;;;;;;13.00;9.20;;;;;;;11.06;71.40;100117.70;127265;1286;107366;-77
2022/10/21 13:55:38;;;;;;;16.70;9.60;;;;;;;11.03;71.53;100109.69;127232;1279;107390;-76
2022/10/21 13:58:45;;;;;;;12.70;8.90;;;;;;;11.00;71.43;100100.36;126985;1286;107611;-77
2022/10/21 14:01:52;;;;;;;15.00;9.00;;;;;;;10.99;71.59;100113.11;126931;1294;107544;-77
2022/10/21 14:04:57;;;;;;;19.60;13.80;;;;;;;10.99;71.44;100107.54;126942;1278;107454;-77
2022/10/21 14:08:04;;;;;;;14.90;9.90;;;;;;;10.97;71.53;100111.80;127170;1279;107512;-76
2022/10/21 14:11:16;;;;;;;16.80;10.40;;;;;;;10.95;71.61;100111.29;127223;1286;107466;-77
2022/10/21 14:14:25;;;;;;;12.00;8.70;;;;;;;10.90;71.58;100110.25;127111;1279;107513;-76
2022/10/21 14:17:31;;;;;;;14.60;9.50;;;;;;;10.86;71.75;100111.04;126918;1278;107235;-77